sensor_id;sensor_type;location;lat;lon;timestamp;pressure;altitude;pressure_sealevel;temperature;humidity
11643;BME280;5877;50.930;6.918;2023-03-19T00:01:06;100355.75;;;10.37;61.68
11643;BME280;5877;50.930;6.918;2023-03-19T00:05:58;100537.75;;;11.54;61.57
11643;BME280;5877;50.930;6.918;2023-03-19T00:10:51;100604.22;;;11.97;61.83
11643;BME280;5877;50.930;6.918;2023-03-19T00:15:42;100510.06;;;11.33;62.07
11643;BME280;5877;50.930;6.918;2023-03-19T00:20:34;100594.16;;;11.94;63.25
11643;BME280;5877;50.930;6.918;2023-03-19T00:25:26;100484.59;;;11.15;63.41
11643;BME280;5877;50.930;6.918;2023-03-19T00:30:18;100596.59;;;11.71;63.25
11643;BME280;5877;50.930;6.918;2023-03-19T00:35:10;100239.84;;;9.29;64.01
11643;BME280;5877;50.930;6.918;2023-03-19T00:40:03;100510.16;;;10.83;64.49
11643;BME280;5877;50.930;6.918;2023-03-19T00:44:57;100552.06;;;10.96;65.29
11643;BME280;5877;50.930;6.918;2023-03-19T00:49:49;100278.41;;;9.15;65.07
11643;BME280;5877;50.930;6.918;2023-03-19T00:54:41;100247.19;;;8.82;64.96
11643;BME280;5877;50.930;6.918;2023-03-19T00:59:33;100369.22;;;9.59;65.05
11643;BME280;5877;50.930;6.918;2023-03-19T01:04:26;100596.28;;;10.99;64.80
11643;BME280;5877;50.930;6.918;2023-03-19T01:09:18;100264.16;;;8.66;65.23
11643;BME280;5877;50.930;6.918;2023-03-19T01:14:10;100266.00;;;8.53;66.01
11643;BME280;5877;50.930;6.918;2023-03-19T01:19:03;100552.00;;;10.22;66.21
11643;BME280;5877;50.930;6.918;2023-03-19T01:23:54;100437.69;;;9.31;67.06
11643;BME280;5877;50.930;6.918;2023-03-19T01:28:48;100484.53;;;9.59;67.22
11643;BME280;5877;50.930;6.918;2023-03-19T01:33:42;100543.66;;;9.93;68.04
11643;BME280;5877;50.930;6.918;2023-03-19T01:38:40;100306.69;;;8.35;68.19
11643;BME280;5877;50.930;6.918;2023-03-19T01:43:38;100603.47;;;10.09;68.58
11643;BME280;5877;50.930;6.918;2023-03-19T01:49:00;100592.75;;;10.18;68.76
11643;BME280;5877;50.930;6.918;2023-03-19T01:53:57;100515.81;;;9.92;67.77
11643;BME280;5877;50.930;6.918;2023-03-19T01:59:17;100388.00;;;9.11;67.81
11643;BME280;5877;50.930;6.918;2023-03-19T02:04:31;100596.59;;;10.53;68.05
11643;BME280;5877;50.930;6.918;2023-03-19T02:09:26;100461.69;;;9.73;67.72
11643;BME280;5877;50.930;6.918;2023-03-19T02:14:18;100324.28;;;8.79;68.03
11643;BME280;5877;50.930;6.918;2023-03-19T02:19:14;100315.25;;;8.75;67.77
11643;BME280;5877;50.930;6.918;2023-03-19T02:24:09;100595.91;;;10.64;68.22
11643;BME280;5877;50.930;6.918;2023-03-19T02:29:25;100480.31;;;9.96;68.07
11643;BME280;5877;50.930;6.918;2023-03-19T02:39:20;100560.25;;;10.57;68.34
11643;BME280;5877;50.930;6.918;2023-03-19T02:44:13;100426.81;;;9.72;68.66
11643;BME280;5877;50.930;6.918;2023-03-19T02:49:08;100482.47;;;10.06;68.78
11643;BME280;5877;50.930;6.918;2023-03-19T02:54:00;100530.56;;;10.31;68.86
11643;BME280;5877;50.930;6.918;2023-03-19T02:58:51;100599.91;;;10.73;68.68
11643;BME280;5877;50.930;6.918;2023-03-19T03:03:43;100488.66;;;10.18;68.71
11643;BME280;5877;50.930;6.918;2023-03-19T03:08:35;100596.00;;;10.83;68.25
11643;BME280;5877;50.930;6.918;2023-03-19T03:13:28;100418.72;;;9.74;68.51
11643;BME280;5877;50.930;6.918;2023-03-19T03:18:19;100466.56;;;10.01;68.29
11643;BME280;5877;50.930;6.918;2023-03-19T03:23:11;100190.63;;;8.30;68.46
11643;BME280;5877;50.930;6.918;2023-03-19T03:28:03;100542.50;;;10.52;68.90
11643;BME280;5877;50.930;6.918;2023-03-19T03:32:55;100336.44;;;9.12;68.72
11643;BME280;5877;50.930;6.918;2023-03-19T03:37:50;100422.03;;;9.63;69.19
11643;BME280;5877;50.930;6.918;2023-03-19T03:42:42;100544.88;;;10.35;69.13
11643;BME280;5877;50.930;6.918;2023-03-19T03:47:35;100621.22;;;10.84;68.81
11643;BME280;5877;50.930;6.918;2023-03-19T03:52:28;100620.47;;;10.77;68.42
11643;BME280;5877;50.930;6.918;2023-03-19T03:57:22;100401.19;;;9.36;68.41
11643;BME280;5877;50.930;6.918;2023-03-19T04:02:15;100573.63;;;10.49;67.78
11643;BME280;5877;50.930;6.918;2023-03-19T04:07:07;100364.63;;;9.10;68.15
11643;BME280;5877;50.930;6.918;2023-03-19T04:12:04;100288.94;;;8.57;68.22
11643;BME280;5877;50.930;6.918;2023-03-19T04:16:56;100388.84;;;8.99;68.87
11643;BME280;5877;50.930;6.918;2023-03-19T04:21:48;100314.53;;;8.42;68.90
11643;BME280;5877;50.930;6.918;2023-03-19T04:26:40;100642.09;;;10.40;69.08
11643;BME280;5877;50.930;6.918;2023-03-19T04:31:32;100383.84;;;8.91;68.95
11643;BME280;5877;50.930;6.918;2023-03-19T04:36:24;100476.72;;;9.39;68.91
11643;BME280;5877;50.930;6.918;2023-03-19T04:41:16;100640.03;;;10.49;69.03
11643;BME280;5877;50.930;6.918;2023-03-19T04:46:22;100640.41;;;10.53;68.93
11643;BME280;5877;50.930;6.918;2023-03-19T04:51:14;100460.00;;;9.40;68.54
11643;BME280;5877;50.930;6.918;2023-03-19T04:56:07;100352.44;;;8.84;68.11
11643;BME280;5877;50.930;6.918;2023-03-19T05:01:00;100649.78;;;10.73;68.06
11643;BME280;5877;50.930;6.918;2023-03-19T05:06:15;100656.69;;;10.68;68.11
11643;BME280;5877;50.930;6.918;2023-03-19T05:11:10;100484.53;;;9.53;67.87
11643;BME280;5877;50.930;6.918;2023-03-19T05:16:19;100576.03;;;10.12;68.26
11643;BME280;5877;50.930;6.918;2023-03-19T05:21:12;100462.03;;;9.38;68.18
11643;BME280;5877;50.930;6.918;2023-03-19T05:26:05;100680.13;;;10.63;68.49
11643;BME280;5877;50.930;6.918;2023-03-19T05:31:15;100639.44;;;10.47;68.55
11643;BME280;5877;50.930;6.918;2023-03-19T05:36:11;100368.63;;;8.61;68.32
11643;BME280;5877;50.930;6.918;2023-03-19T05:41:13;100677.50;;;10.63;68.75
11643;BME280;5877;50.930;6.918;2023-03-19T05:46:15;100661.00;;;10.49;68.84
11643;BME280;5877;50.930;6.918;2023-03-19T05:51:08;100591.22;;;9.97;68.81
11643;BME280;5877;50.930;6.918;2023-03-19T05:56:04;100525.22;;;9.62;68.78
11643;BME280;5877;50.930;6.918;2023-03-19T06:01:05;100520.47;;;9.39;68.14
11643;BME280;5877;50.930;6.918;2023-03-19T06:05:57;100396.94;;;8.91;68.22
11643;BME280;5877;50.930;6.918;2023-03-19T06:11:02;100425.47;;;9.05;67.57
11643;BME280;5877;50.930;6.918;2023-03-19T06:15:56;100625.72;;;10.45;67.58
11643;BME280;5877;50.930;6.918;2023-03-19T06:20:55;100612.75;;;10.50;66.93
11643;BME280;5877;50.930;6.918;2023-03-19T06:25:48;100661.03;;;10.81;66.92
11643;BME280;5877;50.930;6.918;2023-03-19T06:30:41;100656.38;;;10.83;66.51
11643;BME280;5877;50.930;6.918;2023-03-19T06:35:55;100401.25;;;9.23;66.47
11643;BME280;5877;50.930;6.918;2023-03-19T06:40:47;100719.00;;;11.17;66.95
11643;BME280;5877;50.930;6.918;2023-03-19T06:45:39;100675.09;;;10.93;66.51
11643;BME280;5877;50.930;6.918;2023-03-19T06:50:31;100698.56;;;11.19;66.97
11643;BME280;5877;50.930;6.918;2023-03-19T06:55:23;100621.16;;;10.65;66.66
11643;BME280;5877;50.930;6.918;2023-03-19T07:00:15;100729.84;;;11.27;67.15
11643;BME280;5877;50.930;6.918;2023-03-19T07:05:08;100741.34;;;11.26;67.23
11643;BME280;5877;50.930;6.918;2023-03-19T07:10:00;100149.63;;;7.53;67.13
11643;BME280;5877;50.930;6.918;2023-03-19T07:14:53;100555.53;;;9.96;67.52
11643;BME280;5877;50.930;6.918;2023-03-19T07:19:48;100515.94;;;9.66;67.03
11643;BME280;5877;50.930;6.918;2023-03-19T07:24:40;100714.41;;;11.06;66.93
11643;BME280;5877;50.930;6.918;2023-03-19T07:29:32;100422.38;;;9.28;66.54
11643;BME280;5877;50.930;6.918;2023-03-19T07:34:24;100771.44;;;11.62;66.33
11643;BME280;5877;50.930;6.918;2023-03-19T07:39:16;100681.47;;;11.35;65.62
11643;BME280;5877;50.930;6.918;2023-03-19T07:44:07;100606.94;;;11.29;64.53
11643;BME280;5877;50.930;6.918;2023-03-19T07:48:59;100704.47;;;12.44;62.43
11643;BME280;5877;50.930;6.918;2023-03-19T07:53:51;100594.69;;;12.15;61.23
11643;BME280;5877;50.930;6.918;2023-03-19T07:58:44;100562.44;;;11.71;61.43
11643;BME280;5877;50.930;6.918;2023-03-19T08:03:35;100676.66;;;12.78;60.87
11643;BME280;5877;50.930;6.918;2023-03-19T08:08:27;100698.09;;;13.23;59.70
11643;BME280;5877;50.930;6.918;2023-03-19T08:13:19;100662.38;;;12.86;60.07
11643;BME280;5877;50.930;6.918;2023-03-19T08:18:11;100427.53;;;11.70;59.05
11643;BME280;5877;50.930;6.918;2023-03-19T08:23:04;100665.53;;;15.47;52.86
11643;BME280;5877;50.930;6.918;2023-03-19T08:27:58;100785.84;;;16.72;50.67
11643;BME280;5877;50.930;6.918;2023-03-19T08:32:49;100783.91;;;16.07;52.75
11643;BME280;5877;50.930;6.918;2023-03-19T08:37:41;100645.34;;;15.41;52.65
11643;BME280;5877;50.930;6.918;2023-03-19T08:42:33;100660.00;;;15.87;51.85
11643;BME280;5877;50.930;6.918;2023-03-19T08:47:25;100795.31;;;16.68;51.60
11643;BME280;5877;50.930;6.918;2023-03-19T08:52:18;100664.97;;;15.28;53.70
11643;BME280;5877;50.930;6.918;2023-03-19T08:57:10;100795.03;;;17.13;51.21
11643;BME280;5877;50.930;6.918;2023-03-19T09:02:02;100791.72;;;17.01;51.58
11643;BME280;5877;50.930;6.918;2023-03-19T09:06:54;100680.63;;;16.07;52.52
11643;BME280;5877;50.930;6.918;2023-03-19T09:11:47;100667.81;;;17.28;49.35
11643;BME280;5877;50.930;6.918;2023-03-19T09:16:39;100797.50;;;18.83;47.24
11643;BME280;5877;50.930;6.918;2023-03-19T09:21:31;100756.06;;;18.30;48.01
11643;BME280;5877;50.930;6.918;2023-03-19T09:26:22;100805.84;;;18.49;48.04
11643;BME280;5877;50.930;6.918;2023-03-19T09:31:14;100808.03;;;18.05;49.04
11643;BME280;5877;50.930;6.918;2023-03-19T09:36:06;100732.25;;;17.24;49.42
11643;BME280;5877;50.930;6.918;2023-03-19T09:45:52;100545.16;;;15.66;50.60
11643;BME280;5877;50.930;6.918;2023-03-19T09:50:45;100785.03;;;16.71;51.29
11643;BME280;5877;50.930;6.918;2023-03-19T10:00:35;100796.22;;;16.56;51.94
11643;BME280;5877;50.930;6.918;2023-03-19T10:16:27;100704.03;;;16.37;50.22
11643;BME280;5877;50.930;6.918;2023-03-19T10:26:28;100612.00;;;15.40;51.08
11643;BME280;5877;50.930;6.918;2023-03-19T10:36:34;100615.47;;;14.90;53.08
11643;BME280;5877;50.930;6.918;2023-03-19T10:41:49;100837.38;;;16.64;52.69
11643;BME280;5877;50.930;6.918;2023-03-19T10:46:46;100834.59;;;16.71;52.35
11643;BME280;5877;50.930;6.918;2023-03-19T10:51:38;100554.75;;;15.12;51.83
11643;BME280;5877;50.930;6.918;2023-03-19T10:56:33;100682.81;;;15.71;51.69
11643;BME280;5877;50.930;6.918;2023-03-19T11:01:33;100687.00;;;15.50;52.54
11643;BME280;5877;50.930;6.918;2023-03-19T11:06:32;100837.97;;;16.11;53.44
11643;BME280;5877;50.930;6.918;2023-03-19T11:11:35;100843.91;;;16.56;52.19
11643;BME280;5877;50.930;6.918;2023-03-19T11:16:54;100603.22;;;15.17;52.16
11643;BME280;5877;50.930;6.918;2023-03-19T11:26:59;100843.09;;;16.73;53.58
11643;BME280;5877;50.930;6.918;2023-03-19T11:32:11;100839.91;;;17.19;51.87
11643;BME280;5877;50.930;6.918;2023-03-19T11:42:44;100784.63;;;17.06;50.95
11643;BME280;5877;50.930;6.918;2023-03-19T12:13:47;100824.06;;;18.26;50.75
11643;BME280;5877;50.930;6.918;2023-03-19T12:34:18;100823.56;;;17.87;51.40
11643;BME280;5877;50.930;6.918;2023-03-19T12:39:18;100796.13;;;17.44;51.95
11643;BME280;5877;50.930;6.918;2023-03-19T12:49:27;100566.34;;;16.69;49.31
11643;BME280;5877;50.930;6.918;2023-03-19T12:54:30;100811.69;;;18.52;48.42
11643;BME280;5877;50.930;6.918;2023-03-19T13:10:23;100822.72;;;16.56;54.17
11643;BME280;5877;50.930;6.918;2023-03-19T13:15:24;100760.22;;;16.61;53.28
11643;BME280;5877;50.930;6.918;2023-03-19T13:25:15;100606.34;;;15.53;54.40
11643;BME280;5877;50.930;6.918;2023-03-19T13:40:46;100811.66;;;16.81;55.95
11643;BME280;5877;50.930;6.918;2023-03-19T13:45:38;100753.81;;;16.13;58.03
11643;BME280;5877;50.930;6.918;2023-03-19T13:50:49;100772.44;;;16.40;60.10
11643;BME280;5877;50.930;6.918;2023-03-19T13:55:53;100617.75;;;15.53;56.95
11643;BME280;5877;50.930;6.918;2023-03-19T14:00:56;100807.66;;;16.79;54.51
11643;BME280;5877;50.930;6.918;2023-03-19T14:05:51;100798.31;;;17.25;53.81
11643;BME280;5877;50.930;6.918;2023-03-19T14:10:52;100702.63;;;16.73;54.09
11643;BME280;5877;50.930;6.918;2023-03-19T14:15:49;100767.88;;;16.35;54.44
11643;BME280;5877;50.930;6.918;2023-03-19T14:20:58;100812.00;;;16.46;56.30
11643;BME280;5877;50.930;6.918;2023-03-19T14:31:24;100674.38;;;14.74;58.40
11643;BME280;5877;50.930;6.918;2023-03-19T14:36:18;100818.13;;;15.58;58.52
11643;BME280;5877;50.930;6.918;2023-03-19T14:41:16;100820.03;;;15.17;61.44
11643;BME280;5877;50.930;6.918;2023-03-19T14:56:46;100669.13;;;13.70;63.50
11643;BME280;5877;50.930;6.918;2023-03-19T15:01:39;100620.84;;;13.46;63.86
11643;BME280;5877;50.930;6.918;2023-03-19T15:06:35;100838.28;;;14.90;66.46
11643;BME280;5877;50.930;6.918;2023-03-19T15:11:55;100851.94;;;14.99;67.39
11643;BME280;5877;50.930;6.918;2023-03-19T15:17:24;100854.91;;;15.03;67.09
11643;BME280;5877;50.930;6.918;2023-03-19T15:27:19;100585.34;;;13.89;62.49
11643;BME280;5877;50.930;6.918;2023-03-19T15:32:11;100863.72;;;15.65;61.80
11643;BME280;5877;50.930;6.918;2023-03-19T15:37:10;100850.84;;;15.40;60.26
11643;BME280;5877;50.930;6.918;2023-03-19T15:42:04;100867.13;;;15.49;62.34
11643;BME280;5877;50.930;6.918;2023-03-19T15:46:56;100749.13;;;14.46;64.18
11643;BME280;5877;50.930;6.918;2023-03-19T15:51:51;100823.75;;;14.65;65.36
11643;BME280;5877;50.930;6.918;2023-03-19T15:56:44;100391.50;;;11.59;65.16
11643;BME280;5877;50.930;6.918;2023-03-19T16:01:36;100793.75;;;13.54;66.75
11643;BME280;5877;50.930;6.918;2023-03-19T16:06:30;100784.69;;;11.98;76.97
11643;BME280;5877;50.930;6.918;2023-03-19T16:11:33;100744.66;;;14.46;96.53
11643;BME280;5877;50.930;6.918;2023-03-19T16:16:31;100916.78;;;17.36;70.91
11643;BME280;5877;50.930;6.918;2023-03-19T16:21:36;100622.47;;;13.24;70.28
11643;BME280;5877;50.930;6.918;2023-03-19T16:31:27;100694.66;;;11.28;83.85
11643;BME280;5877;50.930;6.918;2023-03-19T16:36:27;100828.59;;;12.23;84.03
11643;BME280;5877;50.930;6.918;2023-03-19T16:41:28;100743.38;;;11.56;83.99
11643;BME280;5877;50.930;6.918;2023-03-19T16:46:23;100883.91;;;12.41;83.48
11643;BME280;5877;50.930;6.918;2023-03-19T16:51:18;100767.44;;;11.84;81.85
11643;BME280;5877;50.930;6.918;2023-03-19T16:56:13;100549.13;;;10.30;81.49
11643;BME280;5877;50.930;6.918;2023-03-19T17:01:13;100696.47;;;11.28;81.17
11643;BME280;5877;50.930;6.918;2023-03-19T17:06:11;100609.41;;;10.99;80.66
11643;BME280;5877;50.930;6.918;2023-03-19T17:11:03;100953.03;;;12.80;79.98
11643;BME280;5877;50.930;6.918;2023-03-19T17:15:58;100755.25;;;11.02;80.58
11643;BME280;5877;50.930;6.918;2023-03-19T17:21:17;100951.75;;;11.83;82.00
11643;BME280;5877;50.930;6.918;2023-03-19T17:26:18;100981.06;;;11.86;82.31
11643;BME280;5877;50.930;6.918;2023-03-19T17:31:22;100742.47;;;10.16;82.88
11643;BME280;5877;50.930;6.918;2023-03-19T17:36:14;100852.47;;;10.89;83.63
11643;BME280;5877;50.930;6.918;2023-03-19T17:41:17;101009.66;;;12.08;81.85
11643;BME280;5877;50.930;6.918;2023-03-19T17:46:31;100888.03;;;11.43;82.45
11643;BME280;5877;50.930;6.918;2023-03-19T17:51:26;100927.06;;;11.84;82.44
11643;BME280;5877;50.930;6.918;2023-03-19T17:56:21;100824.53;;;11.07;81.97
11643;BME280;5877;50.930;6.918;2023-03-19T18:01:18;100727.22;;;10.51;81.68
11643;BME280;5877;50.930;6.918;2023-03-19T18:06:17;101041.06;;;12.65;82.27
11643;BME280;5877;50.930;6.918;2023-03-19T18:11:09;100841.88;;;11.15;82.47
11643;BME280;5877;50.930;6.918;2023-03-19T18:16:03;101050.31;;;12.50;82.32
11643;BME280;5877;50.930;6.918;2023-03-19T18:20:56;100933.78;;;11.66;82.58
11643;BME280;5877;50.930;6.918;2023-03-19T18:25:50;100831.69;;;10.81;82.79
11643;BME280;5877;50.930;6.918;2023-03-19T18:30:43;100779.59;;;10.33;83.04
11643;BME280;5877;50.930;6.918;2023-03-19T18:35:38;100767.88;;;10.29;82.23
11643;BME280;5877;50.930;6.918;2023-03-19T18:40:31;100842.63;;;10.71;82.80
11643;BME280;5877;50.930;6.918;2023-03-19T18:45:27;100891.03;;;11.01;83.00
11643;BME280;5877;50.930;6.918;2023-03-19T18:50:26;100731.78;;;10.04;82.42
11643;BME280;5877;50.930;6.918;2023-03-19T18:55:22;101087.88;;;12.32;82.64
11643;BME280;5877;50.930;6.918;2023-03-19T19:00:20;100706.63;;;9.77;82.27
11643;BME280;5877;50.930;6.918;2023-03-19T19:05:18;100812.34;;;10.75;82.07
11643;BME280;5877;50.930;6.918;2023-03-19T19:10:11;100771.31;;;10.09;81.43
11643;BME280;5877;50.930;6.918;2023-03-19T19:15:03;100661.31;;;9.30;81.69
11643;BME280;5877;50.930;6.918;2023-03-19T19:19:55;101004.59;;;11.61;81.67
11643;BME280;5877;50.930;6.918;2023-03-19T19:24:47;100973.59;;;11.25;81.84
11643;BME280;5877;50.930;6.918;2023-03-19T19:29:39;100884.22;;;10.81;81.41
11643;BME280;5877;50.930;6.918;2023-03-19T19:34:31;100811.88;;;10.27;81.71
11643;BME280;5877;50.930;6.918;2023-03-19T19:39:22;100762.88;;;10.01;81.85
11643;BME280;5877;50.930;6.918;2023-03-19T19:44:18;100704.41;;;9.74;81.66
11643;BME280;5877;50.930;6.918;2023-03-19T19:49:14;101146.97;;;12.36;82.11
11643;BME280;5877;50.930;6.918;2023-03-19T19:54:05;101081.38;;;11.96;81.43
11643;BME280;5877;50.930;6.918;2023-03-19T19:58:57;101073.72;;;11.88;81.11
11643;BME280;5877;50.930;6.918;2023-03-19T20:03:50;100983.69;;;11.28;80.15
11643;BME280;5877;50.930;6.918;2023-03-19T20:08:43;101169.19;;;12.02;81.40
11643;BME280;5877;50.930;6.918;2023-03-19T20:13:34;100829.63;;;9.79;81.58
11643;BME280;5877;50.930;6.918;2023-03-19T20:18:30;100945.22;;;10.63;81.42
11643;BME280;5877;50.930;6.918;2023-03-19T20:23:24;101065.16;;;11.35;79.99
11643;BME280;5877;50.930;6.918;2023-03-19T20:33:44;101164.59;;;11.78;79.04
11643;BME280;5877;50.930;6.918;2023-03-19T20:38:36;100814.50;;;9.61;78.54
11643;BME280;5877;50.930;6.918;2023-03-19T20:43:30;101209.44;;;12.09;78.76
11643;BME280;5877;50.930;6.918;2023-03-19T20:48:24;100995.31;;;10.61;79.79
11643;BME280;5877;50.930;6.918;2023-03-19T20:53:16;101099.94;;;11.11;78.73
11643;BME280;5877;50.930;6.918;2023-03-19T20:58:32;101062.75;;;11.00;78.40
11643;BME280;5877;50.930;6.918;2023-03-19T21:03:29;101204.81;;;11.91;78.51
11643;BME280;5877;50.930;6.918;2023-03-19T21:08:29;100753.72;;;8.98;78.15
11643;BME280;5877;50.930;6.918;2023-03-19T21:13:23;100929.28;;;9.98;78.63
11643;BME280;5877;50.930;6.918;2023-03-19T21:18:15;101184.22;;;11.49;77.66
11643;BME280;5877;50.930;6.918;2023-03-19T21:24:20;100964.59;;;10.02;77.06
11643;BME280;5877;50.930;6.918;2023-03-19T21:30:26;101170.88;;;11.24;76.70
